| time (UTC) | temp F | wind direction | speed knots | gust knots | rain 1hr in | rain 24hr in | rain mn in | humidity % | barometer mb |
| 20260503054525 | 64 | 12 | 0.0 | 0.0 | 0.00 | 0.00 | 0.00 | 32 | 996.2 |
| 20260503053025 | 65 | 12 | 0.0 | 0.0 | 0.00 | 0.00 | 0.00 | 30 | 996.1 |
| 20260503051521 | 65 | 12 | 0.0 | 0.0 | 0.00 | 0.00 | 0.00 | 30 | 996.0 |
| 20260503050022 | 66 | 9 | 0.0 | 0.0 | 0.00 | 0.00 | 0.00 | 29 | 995.9 |
| 20260503044519 | 65 | 5 | 0.0 | 0.0 | 0.00 | 0.00 | 0.00 | 30 | 996.0 |
| 20260503043034 | 64 | 5 | 0.0 | 0.0 | 0.00 | 0.00 | 0.00 | 32 | 995.9 |
| 20260503041521 | 63 | 5 | 0.0 | 0.0 | 0.00 | 0.00 | 0.00 | 33 | 995.9 |
| 20260503040019 | 64 | 355 | 0.0 | 0.0 | 0.00 | 0.00 | 0.00 | 31 | 995.8 |
| 20260503034519 | 65 | 351 | 0.0 | 0.0 | 0.00 | 0.00 | 0.00 | 27 | 995.8 |
| 20260503033023 | 66 | 23 | 0.0 | 0.0 | 0.00 | 0.00 | 0.00 | 22 | 995.8 |
| 20260503031517 | 66 | 23 | 0.0 | 0.0 | 0.00 | 0.00 | 0.00 | 23 | 995.6 |
| 20260503030016 | 66 | 53 | 0.0 | 0.0 | 0.00 | 0.00 | 0.00 | 23 | 995.5 |
| 20260503024524 | 67 | 113 | 0.0 | 0.0 | 0.00 | 0.00 | 0.00 | 22 | 995.6 |
| 20260503023015 | 68 | 113 | 0.0 | 0.0 | 0.00 | 0.00 | 0.00 | 21 | 995.4 |
| 20260503021536 | 69 | 117 | 0.0 | 0.0 | 0.00 | 0.00 | 0.00 | 21 | 995.5 |
| 20260503020014 | 68 | 165 | 0.0 | 0.0 | 0.00 | 0.00 | 0.00 | 22 | 995.5 |
| 20260503014514 | 69 | 165 | 0.0 | 0.0 | 0.00 | 0.00 | 0.00 | 22 | 995.4 |
| 20260503013013 | 69 | 165 | 0.0 | 0.0 | 0.00 | 0.00 | 0.00 | 20 | 995.4 |
| 20260503011513 | 68 | 165 | 0.0 | 0.0 | 0.00 | 0.00 | 0.00 | 21 | 995.4 |
| 20260503010009 | 68 | 167 | 0.0 | 0.0 | 0.00 | 0.00 | 0.00 | 20 | 995.6 |
| 20260503004508 | 68 | 168 | 0.0 | 0.0 | 0.00 | 0.00 | 0.00 | 22 | 995.7 |
| 20260503003012 | 68 | 165 | 0.0 | 0.0 | 0.00 | 0.00 | 0.00 | 23 | 995.6 |
| 20260503001506 | 68 | 163 | 0.0 | 0.0 | 0.00 | 0.00 | 0.00 | 24 | 995.7 |
| 20260503000007 | 67 | 161 | 0.0 | 0.0 | 0.00 | 0.00 | 0.00 | 26 | 995.7 |
| 20260502234503 | 67 | 156 | 0.0 | 0.0 | 0.00 | 0.00 | 0.00 | 27 | 995.8 |
| 20260502233003 | 68 | 161 | 0.0 | 0.0 | 0.00 | 0.00 | 0.00 | 30 | 996.0 |
| 20260502231502 | 68 | 153 | 0.0 | 0.0 | 0.00 | 0.00 | 0.00 | 29 | 996.1 |
| 20260502230058 | 67 | 171 | 0.0 | 0.0 | 0.00 | 0.00 | 0.00 | 30 | 996.2 |
| 20260502224557 | 68 | 148 | 0.0 | 0.0 | 0.00 | 0.00 | 0.00 | 28 | 996.5 |
| 20260502223054 | 67 | 153 | 0.0 | 0.0 | 0.00 | 0.00 | 0.00 | 30 | 996.6 |
| 20260502221552 | 67 | 136 | 0.0 | 0.0 | 0.00 | 0.00 | 0.00 | 31 | 996.9 |
| 20260502220051 | 67 | 140 | 0.0 | 0.0 | 0.00 | 0.00 | 0.00 | 33 | 997.1 |
| 20260502214550 | 66 | 123 | 0.0 | 0.0 | 0.00 | 0.00 | 0.00 | 34 | 997.2 |
| 20260502213102 | 66 | 111 | 0.0 | 0.0 | 0.00 | 0.00 | 0.00 | 34 | 997.3 |
| 20260502211547 | 66 | 169 | 0.0 | 0.0 | 0.00 | 0.00 | 0.00 | 32 | 997.5 |
| 20260502210044 | 65 | 119 | 0.0 | 0.0 | 0.00 | 0.00 | 0.00 | 33 | 997.6 |
| 20260502204545 | 65 | 144 | 0.0 | 0.0 | 0.00 | 0.00 | 0.00 | 32 | 997.8 |
| 20260502203042 | 64 | 155 | 0.0 | 0.0 | 0.00 | 0.00 | 0.00 | 31 | 997.9 |
| 20260502201539 | 64 | 136 | 0.0 | 0.0 | 0.00 | 0.00 | 0.00 | 36 | 997.9 |
| 20260502200058 | 64 | 134 | 0.0 | 0.0 | 0.00 | 0.00 | 0.00 | 36 | 998.1 |
| 20260502194547 | 64 | 150 | 0.0 | 0.0 | 0.00 | 0.00 | 0.00 | 35 | 998.2 |
| 20260502193035 | 63 | 152 | 0.0 | 0.0 | 0.00 | 0.00 | 0.00 | 34 | 998.4 |
| 20260502191534 | 64 | 111 | 0.0 | 0.0 | 0.00 | 0.00 | 0.00 | 35 | 998.5 |
| 20260502190033 | 63 | 148 | 0.0 | 0.0 | 0.00 | 0.00 | 0.00 | 37 | 998.7 |
| 20260502184531 | 63 | 82 | 0.0 | 0.0 | 0.00 | 0.00 | 0.00 | 33 | 998.8 |
| 20260502183036 | 62 | 94 | 0.0 | 0.0 | 0.00 | 0.00 | 0.00 | 33 | 998.9 |
| 20260502181529 | 62 | 162 | 0.0 | 0.0 | 0.00 | 0.00 | 0.00 | 35 | 998.9 |
| 20260502163020 | 59 | 83 | 0.0 | 0.0 | 0.00 | 0.00 | 0.00 | 48 | 998.9 |
| 20260502161518 | 59 | 84 | 0.0 | 0.0 | 0.00 | 0.00 | 0.00 | 47 | 998.9 |
| 20260502151513 | 56 | 65 | 0.0 | 0.0 | 0.00 | 0.00 | 0.00 | 42 | 999.2 |
| 20260502114538 | 54 | 72 | 0.0 | 0.0 | 0.00 | 0.00 | 0.00 | 44 | 998.9 |
| 20260502113038 | 54 | 74 | 0.0 | 0.0 | 0.00 | 0.00 | 0.00 | 43 | 998.8 |
| 20260502111534 | 54 | 78 | 0.0 | 0.0 | 0.00 | 0.00 | 0.00 | 43 | 998.8 |
| 20260502110035 | 54 | 84 | 0.0 | 0.0 | 0.00 | 0.00 | 0.00 | 44 | 998.9 |
| 20260502104532 | 53 | 90 | 0.0 | 0.0 | 0.00 | 0.00 | 0.00 | 44 | 998.9 |
| 20260502103057 | 53 | 72 | 0.0 | 0.0 | 0.00 | 0.00 | 0.00 | 45 | 998.8 |
| 20260502101545 | 54 | 72 | 0.0 | 0.0 | 0.00 | 0.00 | 0.00 | 42 | 999.0 |
| 20260502091523 | 58 | 46 | 0.0 | 0.0 | 0.00 | 0.00 | 0.00 | 33 | 998.9 |
| 20260502071517 | 58 | 62 | 0.0 | 0.0 | 0.00 | 0.00 | 0.00 | 35 | 999.5 |